WeatherOLA & Area Weather Station Summaries and History

Weather history for Indianola, Kingston, Poulsbo, Bainbridge Island, Silverdale other area weather stations. Select a station for detailed historical weather information of any date and time in five minute intervals. Great for looking up the timing of interesting weather events that are closest to you.

Station Historical Data
Daily Summary for September 15, 2017 Units:  English    Metric   Both
« Previous Day
Next Day »
Daily Weekly Monthly Yearly Custom
  High: Low: Average:
Temperature: 75 °F 51.3 °F 61.7 °F
Dew Point: 51.8 °F 40.6 °F 46.4 °F
Humidity: 86% 35% 59%
Wind Speed: 4.6mph 0mph 0.5mph
Wind Gust: 4.6mph - -
Wind- - SE
Pressure: 30.1 in 30 in -
Precipitation: 0 in    
Historical Graphs
 
 
Tabular Data for September 15, 2017
Time Temperature Dew Point Pressure Wind Wind Speed Wind Gust Humidity Rainfall Rate (Hourly) solar Conditions
00:01 57.7 °F 40.6 °F 30 in Calm     53% 0 in WeatherDisplay:10.37 W/m2 CLR
00:07 57.7 °F 41.2 °F 30 in Calm     54% 0 in WeatherDisplay:10.37 W/m2 CLR
00:12 57.6 °F 41.5 °F 30 in Calm     55% 0 in WeatherDisplay:10.37 W/m2 CLR
00:17 57.6 °F 41 °F 30 in Calm     54% 0 in WeatherDisplay:10.37 W/m2 CLR
00:22 57.4 °F 41.4 °F 30 in Calm     55% 0 in WeatherDisplay:10.37 W/m2 CLR
00:27 57.4 °F 41.4 °F 30 in Calm     55% 0 in WeatherDisplay:10.37 W/m2 CLR
00:32 57.2 °F 41.2 °F 30 in Calm     55% 0 in WeatherDisplay:10.37 W/m2 CLR
00:37 57 °F 40.6 °F 30 in Calm     54% 0 in WeatherDisplay:10.37 W/m2 CLR
00:42 57.2 °F 41.2 °F 30 in Calm     55% 0 in WeatherDisplay:10.37 W/m2 CLR
00:47 57.2 °F 41.5 °F 30 in Calm     56% 0 in WeatherDisplay:10.37 W/m2 CLR
00:52 57 °F 42.1 °F 30 in Calm     57% 0 in WeatherDisplay:10.37 W/m2 CLR
00:57 57 °F 42.4 °F 30 in Calm     58% 0 in WeatherDisplay:10.37 W/m2 CLR
01:02 56.8 °F 41.4 °F 30 in Calm     56% 0 in WeatherDisplay:10.37 W/m2 CLR
01:07 56.8 °F 41.7 °F 30 in Calm     57% 0 in WeatherDisplay:10.37 W/m2 CLR
01:12 56.8 °F 42.6 °F 30 in Calm     59% 0 in WeatherDisplay:10.37 W/m2 CLR
01:18 56.8 °F 43.2 °F 30 in Calm     60% 0 in WeatherDisplay:10.37 W/m2 CLR
01:23 56.7 °F 43 °F 30 in Calm     60% 0 in WeatherDisplay:10.37 W/m2 CLR
01:28 56.7 °F 43 °F 30 in Calm     60% 0 in WeatherDisplay:10.37 W/m2 CLR
01:33 56.5 °F 42.8 °F 30 in Calm     60% 0 in WeatherDisplay:10.37 W/m2 CLR
01:38 56.5 °F 43.2 °F 30 in Calm     61% 0 in WeatherDisplay:10.37 W/m2 CLR
01:43 56.5 °F 42.6 °F 30 in Calm     60% 0 in WeatherDisplay:10.37 W/m2 CLR
01:48 56.5 °F 42.8 °F 30 in Calm     60% 0 in WeatherDisplay:10.37 W/m2 CLR
01:53 56.7 °F 43 °F 30 in Calm     60% 0 in WeatherDisplay:10.37 W/m2 CLR
01:58 56.7 °F 42.1 °F 30 in Calm     58% 0 in WeatherDisplay:10.37 W/m2 CLR
02:03 56.8 °F 42.6 °F 30 in Calm     59% 0 in WeatherDisplay:10.37 W/m2 CLR
02:08 57 °F 42.4 °F 30 in Calm     58% 0 in WeatherDisplay:10.37 W/m2 CLR
02:13 57 °F 42.1 °F 30 in Calm     57% 0 in WeatherDisplay:10.37 W/m2 CLR
02:18 57 °F 43.9 °F 30 in Calm     61% 0 in WeatherDisplay:10.37 W/m2 CLR
02:23 56.7 °F 43.3 °F 30 in Calm     61% 0 in WeatherDisplay:10.37 W/m2 CLR
02:28 56.3 °F 43 °F 30 in Calm     61% 0 in WeatherDisplay:10.37 W/m2 CLR
02:33 55.9 °F 42.3 °F 30 in Calm     60% 0 in WeatherDisplay:10.37 W/m2 CLR
02:38 55.8 °F 42.4 °F 30 in North 1.2 mph   61% 0 in WeatherDisplay:10.37 W/m2 CLR
02:43 55.8 °F 43.3 °F 30 in Calm     63% 0 in WeatherDisplay:10.37 W/m2 CLR
02:53 55.8 °F 43.7 °F 30 in Calm     64% 0 in WeatherDisplay:10.37 W/m2 CLR
02:58 55.8 °F 43.7 °F 30 in Calm     64% 0 in WeatherDisplay:10.37 W/m2 CLR
03:03 55.6 °F 44.1 °F 30 in Calm     65% 0 in WeatherDisplay:10.37 W/m2 CLR
03:08 55.6 °F 44.2 °F 30 in Calm     66% 0 in WeatherDisplay:10.37 W/m2 CLR
03:13 55.4 °F 44.2 °F 30 in Calm     66% 0 in WeatherDisplay:10.37 W/m2 CLR
03:18 55.2 °F 44.1 °F 30 in Calm     66% 0 in WeatherDisplay:10.37 W/m2 CLR
03:23 55 °F 44.2 °F 30 in Calm     67% 0 in WeatherDisplay:10.37 W/m2 CLR
03:28 54.9 °F 44.1 °F 30 in Calm     67% 0 in WeatherDisplay:10.37 W/m2 CLR
03:33 54.9 °F 44.1 °F 30 in Calm     67% 0 in WeatherDisplay:10.37 W/m2 CLR
03:38 54.7 °F 44.1 °F 30 in Calm     67% 0 in WeatherDisplay:10.37 W/m2 CLR
03:43 54.7 °F 43.5 °F 30 in Calm     66% 0 in WeatherDisplay:10.37 W/m2 CLR
03:48 54.7 °F 43.5 °F 30 in Calm     66% 0 in WeatherDisplay:10.37 W/m2 CLR
03:53 54.5 °F 43.3 °F 30 in Calm     66% 0 in WeatherDisplay:10.37 W/m2 CLR
03:58 54.5 °F 42.6 °F 30 in Calm     64% 0 in WeatherDisplay:10.37 W/m2 CLR
04:03 54.3 °F 42.4 °F 30 in Calm     64% 0 in WeatherDisplay:10.37 W/m2 CLR
04:08 54.3 °F 42.1 °F 30 in Calm     63% 0 in WeatherDisplay:10.37 W/m2 CLR
04:13 54.3 °F 42.1 °F 30 in Calm     63% 0 in WeatherDisplay:10.37 W/m2 CLR
04:18 54.1 °F 41.9 °F 30 in Calm     63% 0 in WeatherDisplay:10.37 W/m2 CLR
04:23 54.1 °F 41.7 °F 30 in Calm     63% 0 in WeatherDisplay:10.37 W/m2 CLR
04:28 54.1 °F 41.4 °F 30 in Calm     62% 0 in WeatherDisplay:10.37 W/m2 CLR
04:33 54 °F 41.7 °F 30 in Calm     63% 0 in WeatherDisplay:10.37 W/m2 CLR
04:38 54 °F 42.1 °F 30 in Calm     64% 0 in WeatherDisplay:10.37 W/m2 CLR
04:44 54 °F 43.2 °F 30 in Calm     67% 0 in WeatherDisplay:10.37 W/m2 CLR
04:49 54 °F 43.2 °F 30 in Calm     67% 0 in WeatherDisplay:10.37 W/m2 CLR
04:54 54 °F 43.5 °F 30 in Calm     68% 0 in WeatherDisplay:10.37 W/m2 CLR
04:59 54 °F 43.5 °F 30 in Calm     68% 0 in WeatherDisplay:10.37 W/m2 CLR
05:04 54 °F 44.1 °F 30 in Calm     69% 0 in WeatherDisplay:10.37 W/m2 CLR
05:09 53.8 °F 43.9 °F 30 in Calm     69% 0 in WeatherDisplay:10.37 W/m2 CLR
05:14 53.6 °F 44.1 °F 30 in Calm     70% 0 in WeatherDisplay:10.37 W/m2 CLR
05:19 53.4 °F 44.2 °F 30 in Calm     71% 0 in WeatherDisplay:10.37 W/m2 CLR
05:24 53.4 °F 44.2 °F 30 in Calm     71% 0 in WeatherDisplay:10.37 W/m2 CLR
05:29 53.4 °F 44.6 °F 30 in Calm     72% 0 in WeatherDisplay:10.37 W/m2 CLR
05:34 53.2 °F 45 °F 30 in Calm     73% 0 in WeatherDisplay:10.37 W/m2 CLR
05:39 53.4 °F 45.3 °F 30 in Calm     74% 0 in WeatherDisplay:10.37 W/m2 CLR
05:44 53.4 °F 45.3 °F 30 in Calm     74% 0 in WeatherDisplay:10.37 W/m2 CLR
05:49 53.4 °F 45.1 °F 30 in Calm     73% 0 in WeatherDisplay:10.37 W/m2 CLR
05:54 53.4 °F 45.1 °F 30 in Calm     73% 0 in WeatherDisplay:10.37 W/m2 CLR
05:59 53.4 °F 45.1 °F 30 in Calm     73% 0 in WeatherDisplay:10.37 W/m2 CLR
06:04 53.4 °F 45.1 °F 30 in Calm     73% 0 in WeatherDisplay:10.37 W/m2 CLR
06:09 53.4 °F 45.1 °F 30 in Calm     73% 0 in WeatherDisplay:10.37 W/m2 CLR
06:14 53.4 °F 45.3 °F 30 in Calm     74% 0 in WeatherDisplay:10.37 W/m2 CLR
06:19 53.4 °F 45.3 °F 30 in Calm     74% 0 in WeatherDisplay:10.37 W/m2 CLR
06:24 53.2 °F 45.5 °F 30 in Calm     75% 0 in WeatherDisplay:10.37 W/m2 CLR
06:29 53.1 °F 45.3 °F 30 in Calm     75% 0 in WeatherDisplay:10.37 W/m2 CLR
06:34 52.9 °F 45.9 °F 30 in Calm     77% 0 in WeatherDisplay:10.37 W/m2 CLR
06:39 52.9 °F 45.9 °F 30 in Calm     77% 0 in WeatherDisplay:10.37 W/m2 CLR
06:44 52.9 °F 46 °F 30 in Calm     78% 0 in WeatherDisplay:10.37 W/m2 CLR
06:49 52.7 °F 46 °F 30 in Calm     78% 0 in WeatherDisplay:10.37 W/m2 CLR
06:54 52.7 °F 46.4 °F 30 in Calm     79% 0 in WeatherDisplay:10.37 W/m2 CLR
06:59 52.5 °F 46.2 °F 30.1 in Calm     79% 0 in WeatherDisplay:10.37 W/m2 CLR
07:05 52.5 °F 46.6 °F 30.1 in Calm     80% 0 in WeatherDisplay:10.37 W/m2 CLR
07:10 52.3 °F 46 °F 30.1 in Calm     79% 0 in WeatherDisplay:10.37 W/m2 CLR
07:15 52.2 °F 45.9 °F 30.1 in Calm     79% 0 in WeatherDisplay:10.37 W/m2 CLR
07:20 52 °F 45.7 °F 30.1 in Calm     79% 0 in WeatherDisplay:10.37 W/m2 CLR
07:25 51.6 °F 46 °F 30.1 in Calm     81% 0 in WeatherDisplay:10.37 W/m2 CLR
07:30 51.4 °F 45.9 °F 30.1 in Calm     81% 0 in WeatherDisplay:10.37 W/m2 CLR
07:35 51.4 °F 46 °F 30.1 in Calm     82% 0 in WeatherDisplay:10.37 W/m2 CLR
07:40 51.3 °F 46.2 °F 30.1 in Calm     83% 0 in WeatherDisplay:10.37 W/m2 CLR
07:45 51.3 °F 46.2 °F 30.1 in Calm     83% 0 in WeatherDisplay:10.37 W/m2 CLR
07:50 51.3 °F 46.2 °F 30.1 in Calm     83% 0 in WeatherDisplay:10.37 W/m2 CLR
07:55 51.3 °F 46.2 °F 30.1 in Calm     83% 0 in WeatherDisplay:10.37 W/m2 CLR
08:00 51.4 °F 46.8 °F 30.1 in Calm     84% 0 in WeatherDisplay:10.37 W/m2 CLR
08:05 51.4 °F 46.8 °F 30.1 in Calm     84% 0 in WeatherDisplay:10.37 W/m2 CLR
08:10 51.6 °F 47.1 °F 30.1 in Calm     85% 0 in WeatherDisplay:10.37 W/m2 CLR
08:15 51.6 °F 47.3 °F 30.1 in Calm     85% 0 in WeatherDisplay:10.37 W/m2 CLR
08:20 52 °F 47.5 °F 30.1 in Calm     85% 0 in WeatherDisplay:10.37 W/m2 CLR
08:25 52.2 °F 47.7 °F 30.1 in Calm     85% 0 in WeatherDisplay:10.37 W/m2 CLR
08:30 52.3 °F 47.8 °F 30.1 in Calm     85% 0 in WeatherDisplay:10.37 W/m2 CLR
08:35 52.5 °F 48 °F 30.1 in Calm     85% 0 in WeatherDisplay:10.37 W/m2 CLR
08:40 52.9 °F 48.4 °F 30.1 in Calm     85% 0 in WeatherDisplay:10.37 W/m2 CLR
08:45 53.2 °F 49.1 °F 30.1 in Calm     86% 0 in WeatherDisplay:10.37 W/m2 CLR
08:46 53.2 °F 49.1 °F 30.1 in Calm     86% 0 in WeatherDisplay:10.37 W/m2 CLR
08:51 53.4 °F 48.9 °F 30.1 in Calm     85% 0 in WeatherDisplay:10.37 W/m2 CLR
08:56 53.6 °F 49.3 °F 30.1 in Calm     85% 0 in WeatherDisplay:10.37 W/m2 CLR
09:01 53.8 °F 49.5 °F 30.1 in Calm     85% 0 in WeatherDisplay:10.37 W/m2 CLR
09:06 54.1 °F 49.5 °F 30.1 in Calm     84% 0 in WeatherDisplay:10.37 W/m2 CLR
09:11 54.3 °F 49.3 °F 30.1 in Calm     83% 0 in WeatherDisplay:10.37 W/m2 CLR
09:16 54.9 °F 49.6 °F 30.1 in Calm     83% 0 in WeatherDisplay:10.37 W/m2 CLR
09:21 55.2 °F 49.8 °F 30.1 in Calm     82% 0 in WeatherDisplay:10.37 W/m2 CLR
09:26 55.8 °F 50.4 °F 30.1 in Calm     82% 0 in WeatherDisplay:10.37 W/m2 CLR
09:31 55.9 °F 50.5 °F 30.1 in Calm     82% 0 in WeatherDisplay:10.37 W/m2 CLR
09:36 56.7 °F 49.8 °F 30.1 in Calm     78% 0 in WeatherDisplay:10.37 W/m2 CLR
09:41 57 °F 49.6 °F 30.1 in North 1.2 mph   76% 0 in WeatherDisplay:10.37 W/m2 CLR
09:46 57.6 °F 50.2 °F 30.1 in Calm     76% 0 in WeatherDisplay:10.37 W/m2 CLR
09:51 58.1 °F 49.1 °F 30.1 in North 1.2 mph   72% 0 in WeatherDisplay:10.37 W/m2 CLR
09:56 58.5 °F 48.9 °F 30.1 in North 1.2 mph   71% 0 in WeatherDisplay:10.37 W/m2 CLR
10:02 58.6 °F 47.7 °F 30.1 in Calm     67% 0 in WeatherDisplay:10.37 W/m2 CLR
10:06 59 °F 47.1 °F 30.1 in North 1.2 mph   65% 0 in WeatherDisplay:10.37 W/m2 CLR
10:12 59.5 °F 47.7 °F 30.1 in Calm     65% 0 in WeatherDisplay:10.37 W/m2 CLR
10:17 59.9 °F 47.7 °F 30.1 in Calm     64% 0 in WeatherDisplay:10.37 W/m2 CLR
10:22 60.3 °F 47.1 °F 30.1 in NE 1.2 mph 1.2 mph 62% 0 in WeatherDisplay:10.37 W/m2 CLR
10:27 60.6 °F 48 °F 30.1 in Calm     63% 0 in WeatherDisplay:10.37 W/m2 CLR
10:32 61 °F 47.8 °F 30.1 in Calm     62% 0 in WeatherDisplay:10.37 W/m2 CLR
10:37 61.3 °F 49.5 °F 30.1 in Calm     65% 0 in WeatherDisplay:10.37 W/m2 CLR
10:42 61.5 °F 48.7 °F 30.1 in Calm     63% 0 in WeatherDisplay:10.37 W/m2 CLR
10:47 61.9 °F 49.1 °F 30.1 in Calm     63% 0 in WeatherDisplay:10.37 W/m2 CLR
10:52 62.2 °F 49.5 °F 30.1 in ENE 2.3 mph 2.3 mph 63% 0 in WeatherDisplay:10.37 W/m2 CLR
10:57 62.4 °F 50.2 °F 30.1 in SE 1.2 mph 1.2 mph 64% 0 in WeatherDisplay:10.37 W/m2 CLR
11:02 62.6 °F 49.5 °F 30.1 in SE 1.2 mph 1.2 mph 62% 0 in WeatherDisplay:10.37 W/m2 CLR
11:07 63 °F 49.6 °F 30.1 in SE 1.2 mph   62% 0 in WeatherDisplay:10.37 W/m2 CLR
11:12 63.1 °F 48.6 °F 30.1 in ESE 3.5 mph 3.5 mph 59% 0 in WeatherDisplay:10.37 W/m2 CLR
11:17 63.1 °F 50 °F 30.1 in ESE 1.2 mph 1.2 mph 62% 0 in WeatherDisplay:10.37 W/m2 CLR
11:22 63.1 °F 49.1 °F 30.1 in East 3.5 mph 3.5 mph 60% 0 in WeatherDisplay:10.37 W/m2 CLR
11:27 63.1 °F 48.9 °F 30.1 in ENE 3 mph 3 mph 60% 0 in WeatherDisplay:10.37 W/m2 CLR
11:32 63.3 °F 48.4 °F 30.1 in NE 1.2 mph 1.2 mph 58% 0 in WeatherDisplay:10.37 W/m2 CLR
11:37 64 °F 48.9 °F 30.1 in NE 1.2 mph 1.2 mph 58% 0 in WeatherDisplay:10.37 W/m2 CLR
11:42 64.9 °F 49.5 °F 30.1 in NE 1 mph   57% 0 in WeatherDisplay:10.37 W/m2 CLR
11:47 65.8 °F 49.3 °F 30.1 in East 3.5 mph 3.5 mph 55% 0 in WeatherDisplay:10.37 W/m2 CLR
11:52 66.6 °F 49.5 °F 30.1 in East 4.6 mph   54% 0 in WeatherDisplay:10.37 W/m2 CLR
11:57 66.9 °F 49.3 °F 30.1 in SSE 2.3 mph 2.3 mph 53% 0 in WeatherDisplay:10.37 W/m2 CLR
12:02 67.6 °F 49.8 °F 30.1 in NNE 1.2 mph 1.2 mph 53% 0 in WeatherDisplay:10.37 W/m2 CLR
12:07 68.4 °F 50.5 °F 30.1 in Calm     53% 0 in WeatherDisplay:10.37 W/m2 CLR
12:12 69.3 °F 50.7 °F 30.1 in NE 1.2 mph 1.2 mph 52% 0 in WeatherDisplay:10.37 W/m2 CLR
12:17 69.4 °F 50.5 °F 30.1 in NE 1.2 mph   51% 0 in WeatherDisplay:10.37 W/m2 CLR
12:22 70.2 °F 50 °F 30.1 in East 3.5 mph 3.5 mph 49% 0 in WeatherDisplay:10.37 W/m2 CLR
12:28 70.5 °F 50.4 °F 30.1 in North 2.3 mph 2.3 mph 49% 0 in WeatherDisplay:10.37 W/m2 CLR
12:33 70.9 °F 50.7 °F 30.1 in West 1.2 mph 1.2 mph 49% 0 in WeatherDisplay:10.37 W/m2 CLR
12:38 71.2 °F 51.1 °F 30.1 in SE 2.3 mph 2.3 mph 49% 0 in WeatherDisplay:10.37 W/m2 CLR
12:43 71.8 °F 51.1 °F 30.1 in East 4.6 mph 4.6 mph 48% 0 in WeatherDisplay:10.37 W/m2 CLR
12:48 71.6 °F 50.9 °F 30.1 in North 2.3 mph 2.3 mph 48% 0 in WeatherDisplay:10.37 W/m2 CLR
12:53 71.2 °F 50.5 °F 30.1 in East 2.3 mph 2.3 mph 48% 0 in WeatherDisplay:10.37 W/m2 CLR
12:58 70.9 °F 50.7 °F 30.1 in ESE 4.6 mph 4.6 mph 49% 0 in WeatherDisplay:10.37 W/m2 CLR
13:03 70.5 °F 50.4 °F 30.1 in South 2.3 mph 2.3 mph 49% 0 in WeatherDisplay:10.37 W/m2 CLR
13:08 70.9 °F 50.2 °F 30.1 in ESE 3.5 mph 3.5 mph 48% 0 in WeatherDisplay:10.37 W/m2 CLR
13:13 71.4 °F 51.3 °F 30.1 in Calm     49% 0 in WeatherDisplay:10.37 W/m2 CLR
13:18 72 °F 51.8 °F 30.1 in East 1.2 mph   49% 0 in WeatherDisplay:10.37 W/m2 CLR
13:23 72 °F 50.2 °F 30.1 in East 1.2 mph 1.2 mph 46% 0 in WeatherDisplay:10.37 W/m2 CLR
13:28 72.1 °F 50.2 °F 30.1 in ESE 2.3 mph 2.3 mph 46% 0 in WeatherDisplay:10.37 W/m2 CLR
13:33 72.1 °F 50.4 °F 30.1 in Calm     46% 0 in WeatherDisplay:10.37 W/m2 CLR
13:38 72.3 °F 49.8 °F 30 in East 1.2 mph 1.2 mph 45% 0 in WeatherDisplay:10.37 W/m2 CLR
13:43 72.3 °F 49.8 °F 30 in ESE 2.3 mph 2.3 mph 45% 0 in WeatherDisplay:10.37 W/m2 CLR
13:48 72.7 °F 49.5 °F 30 in East 1.2 mph 1.2 mph 44% 0 in WeatherDisplay:10.37 W/m2 CLR
13:54 72.9 °F 50.4 °F 30 in East 1.2 mph 1.2 mph 45% 0 in WeatherDisplay:10.37 W/m2 CLR
13:59 73.2 °F 49.5 °F 30 in East 4.6 mph 4.6 mph 43% 0 in WeatherDisplay:10.37 W/m2 CLR
14:04 72.9 °F 49.6 °F 30 in East 3.5 mph 3.5 mph 44% 0 in WeatherDisplay:10.37 W/m2 CLR
14:09 72 °F 49.5 °F 30 in Calm     45% 0 in WeatherDisplay:10.37 W/m2 CLR
14:14 72 °F 49.5 °F 30 in ESE 2.3 mph 2.3 mph 45% 0 in WeatherDisplay:10.37 W/m2 CLR
14:19 72.3 °F 49.3 °F 30 in East 4.6 mph 4.6 mph 44% 0 in WeatherDisplay:10.37 W/m2 CLR
14:24 72.9 °F 50.9 °F 30 in ESE 1.2 mph 1.2 mph 46% 0 in WeatherDisplay:10.37 W/m2 CLR
14:29 73.8 °F 51.1 °F 30 in Calm     45% 0 in WeatherDisplay:10.37 W/m2 CLR
14:34 74.7 °F 51.3 °F 30 in SE 3 mph 3 mph 44% 0 in WeatherDisplay:10.37 W/m2 CLR
14:39 74.7 °F 51.3 °F 30 in Calm     44% 0 in WeatherDisplay:10.37 W/m2 CLR
14:44 74.8 °F 50.2 °F 30 in ESE 2.3 mph 2.3 mph 42% 0 in WeatherDisplay:10.37 W/m2 CLR
14:49 74.7 °F 50.7 °F 30 in ENE 2.3 mph 2.3 mph 43% 0 in WeatherDisplay:10.37 W/m2 CLR
14:54 74.5 °F 50.5 °F 30 in South 3.5 mph 3.5 mph 43% 0 in WeatherDisplay:10.37 W/m2 CLR
14:59 74.5 °F 51.1 °F 30 in South 1.2 mph   44% 0 in WeatherDisplay:10.37 W/m2 CLR
15:04 74.3 °F 49.1 °F 30 in SE 1.2 mph 1.2 mph 41% 0 in WeatherDisplay:10.37 W/m2 CLR
15:09 74.7 °F 50.2 °F 30 in Calm     42% 0 in WeatherDisplay:10.37 W/m2 CLR
15:14 74.8 °F 48.9 °F 30 in SE 1.2 mph 1.2 mph 40% 0 in WeatherDisplay:10.37 W/m2 CLR
15:19 75 °F 49.6 °F 30 in North 1.2 mph   41% 0 in WeatherDisplay:10.37 W/m2 CLR
15:20 75 °F 49.6 °F 30 in North 1.2 mph   41% 0 in WeatherDisplay:10.37 W/m2 CLR
15:25 75 °F 50.4 °F 30 in North 1.2 mph 1.2 mph 42% 0 in WeatherDisplay:10.37 W/m2 CLR
15:30 74.7 °F 49.5 °F 30 in North 1.2 mph   41% 0 in WeatherDisplay:10.37 W/m2 CLR
15:35 74.5 °F 45 °F 30 in North 1.2 mph 1.2 mph 35% 0 in WeatherDisplay:10.37 W/m2 CLR
15:40 74.1 °F 46.2 °F 30 in NNE 3 mph 3 mph 37% 0 in WeatherDisplay:10.37 W/m2 CLR
15:45 73.8 °F 46.6 °F 30 in NNE 1.2 mph 1.2 mph 38% 0 in WeatherDisplay:10.37 W/m2 CLR
15:50 73.8 °F 49.8 °F 30 in North 1.2 mph   43% 0 in WeatherDisplay:10.37 W/m2 CLR
15:55 73.4 °F 49.5 °F 30 in SE 2.3 mph   43% 0 in WeatherDisplay:10.37 W/m2 CLR
16:00 72.9 °F 49.6 °F 30 in SE 1 mph   44% 0 in WeatherDisplay:10.37 W/m2 CLR
16:05 72.5 °F 49.8 °F 30 in Calm     45% 0 in WeatherDisplay:10.37 W/m2 CLR
16:10 72.3 °F 49.3 °F 30 in SE 1.2 mph   44% 0 in WeatherDisplay:10.37 W/m2 CLR
16:15 72.1 °F 49.1 °F 30 in SE 1.2 mph 1.2 mph 44% 0 in WeatherDisplay:10.37 W/m2 CLR
16:20 72 °F 49.5 °F 30 in SE 2.3 mph 2.3 mph 45% 0 in WeatherDisplay:10.37 W/m2 CLR
16:25 71.4 °F 50.2 °F 30 in Calm     47% 0 in WeatherDisplay:10.37 W/m2 CLR
16:30 71.1 °F 49.3 °F 30 in Calm   0.1 mph 46% 0 in WeatherDisplay:10.37 W/m2 CLR
16:35 70.9 °F 49.6 °F 30 in SE 1 mph   47% 0 in WeatherDisplay:10.37 W/m2 CLR
16:40 70.9 °F 48.9 °F 30 in Calm     46% 0 in WeatherDisplay:10.37 W/m2 CLR
16:45 70.7 °F 47.7 °F 30 in SE 1.2 mph   44% 0 in WeatherDisplay:10.37 W/m2 CLR
16:51 70.7 °F 48.4 °F 30 in Calm     45% 0 in WeatherDisplay:10.37 W/m2 CLR
16:56 70.7 °F 50 °F 30 in Calm     48% 0 in WeatherDisplay:10.37 W/m2 CLR
17:06 70.7 °F 48.9 °F 30 in SE 1 mph 1 mph 46% 0 in WeatherDisplay:10.37 W/m2 CLR
17:11 70.9 °F 48.9 °F 30 in Calm     46% 0 in WeatherDisplay:10.37 W/m2 CLR
17:16 70.9 °F 49.6 °F 30 in Calm     47% 0 in WeatherDisplay:10.37 W/m2 CLR
17:21 70.5 °F 48 °F 30 in Calm     45% 0 in WeatherDisplay:10.37 W/m2 CLR
17:26 70.3 °F 49.3 °F 30 in Calm     47% 0 in WeatherDisplay:10.37 W/m2 CLR
17:31 70.2 °F 48.9 °F 30 in Calm     47% 0 in WeatherDisplay:10.37 W/m2 CLR
17:36 70 °F 48.7 °F 30 in Calm     47% 0 in WeatherDisplay:10.37 W/m2 CLR
17:41 69.6 °F 48.6 °F 30 in Calm     47% 0 in WeatherDisplay:10.37 W/m2 CLR
17:46 69.4 °F 48.9 °F 30 in Calm     48% 0 in WeatherDisplay:10.37 W/m2 CLR
17:51 69.4 °F 49.8 °F 30 in Calm     50% 0 in WeatherDisplay:10.37 W/m2 CLR
17:56 69.3 °F 49.8 °F 30 in Calm     50% 0 in WeatherDisplay:10.37 W/m2 CLR
18:01 69.1 °F 50.2 °F 30 in Calm     51% 0 in WeatherDisplay:10.37 W/m2 CLR
18:06 68.9 °F 50 °F 30 in Calm     51% 0 in WeatherDisplay:10.37 W/m2 CLR
18:11 68.7 °F 50.5 °F 30 in Calm     52% 0 in WeatherDisplay:10.37 W/m2 CLR
18:16 68.5 °F 49.6 °F 30 in Calm     51% 0 in WeatherDisplay:10.37 W/m2 CLR
18:21 68.2 °F 48.7 °F 30 in Calm     50% 0 in WeatherDisplay:10.37 W/m2 CLR
18:26 68 °F 49.3 °F 30 in Calm     51% 0 in WeatherDisplay:10.37 W/m2 CLR
18:31 67.6 °F 49.8 °F 30 in Calm     53% 0 in WeatherDisplay:10.37 W/m2 CLR
18:36 67.5 °F 48.6 °F 30 in Calm     51% 0 in WeatherDisplay:10.37 W/m2 CLR
18:41 67.1 °F 48.4 °F 30 in Calm     51% 0 in WeatherDisplay:10.37 W/m2 CLR
18:46 66.7 °F 47.7 °F 30 in Calm     50% 0 in WeatherDisplay:10.37 W/m2 CLR
18:51 66.6 °F 48.4 °F 30 in Calm     52% 0 in WeatherDisplay:10.37 W/m2 CLR
18:56 66.4 °F 47.1 °F 30 in Calm     50% 0 in WeatherDisplay:10.37 W/m2 CLR
19:01 65.8 °F 47.7 °F 30 in Calm     52% 0 in WeatherDisplay:10.37 W/m2 CLR
19:06 65.5 °F 46.8 °F 30 in Calm     51% 0 in WeatherDisplay:10.37 W/m2 CLR
19:11 65.1 °F 47.5 °F 30 in Calm     53% 0 in WeatherDisplay:10.37 W/m2 CLR
19:16 64.8 °F 47.3 °F 30 in Calm     53% 0 in WeatherDisplay:10.37 W/m2 CLR
19:21 64.4 °F 47.5 °F 30 in Calm     54% 0 in WeatherDisplay:10.37 W/m2 CLR
19:26 64 °F 47.1 °F 30 in Calm     54% 0 in WeatherDisplay:10.37 W/m2 CLR
19:31 63.9 °F 46.4 °F 30 in Calm     53% 0 in WeatherDisplay:10.37 W/m2 CLR
19:36 63.7 °F 46 °F 30 in Calm     53% 0 in WeatherDisplay:10.37 W/m2 CLR
19:41 63.3 °F 45.9 °F 30 in Calm     53% 0 in WeatherDisplay:10.37 W/m2 CLR
19:46 63.1 °F 45.1 °F 30 in Calm     52% 0 in WeatherDisplay:10.37 W/m2 CLR
19:51 63 °F 44.4 °F 30 in Calm     51% 0 in WeatherDisplay:10.37 W/m2 CLR
19:56 62.8 °F 43.9 °F 30 in Calm     50% 0 in WeatherDisplay:10.37 W/m2 CLR
20:01 62.4 °F 43.5 °F 30 in Calm     50% 0 in WeatherDisplay:10.37 W/m2 CLR
20:06 62.4 °F 43 °F 30 in Calm     49% 0 in WeatherDisplay:10.37 W/m2 CLR
20:11 62.2 °F 43.3 °F 30 in Calm     50% 0 in WeatherDisplay:10.37 W/m2 CLR
20:17 62.2 °F 43.3 °F 30 in Calm     50% 0 in WeatherDisplay:10.37 W/m2 CLR
20:21 62.1 °F 43.2 °F 30 in Calm     50% 0 in WeatherDisplay:10.37 W/m2 CLR
20:26 62.1 °F 43.2 °F 30 in Calm     50% 0 in WeatherDisplay:10.37 W/m2 CLR
20:31 62.1 °F 43.2 °F 30 in Calm     50% 0 in WeatherDisplay:10.37 W/m2 CLR
20:36 62.1 °F 43.7 °F 30 in Calm     51% 0 in WeatherDisplay:10.37 W/m2 CLR
20:41 62.1 °F 43.7 °F 30 in Calm     51% 0 in WeatherDisplay:10.37 W/m2 CLR
20:46 62.1 °F 43.7 °F 30 in Calm     51% 0 in WeatherDisplay:10.37 W/m2 CLR
20:51 62.1 °F 43.7 °F 30 in Calm     51% 0 in WeatherDisplay:10.37 W/m2 CLR
20:56 62.1 °F 43.7 °F 30 in Calm     51% 0 in WeatherDisplay:10.37 W/m2 CLR
21:01 61.9 °F 43.5 °F 30 in Calm     51% 0 in WeatherDisplay:10.37 W/m2 CLR
21:06 61.9 °F 43.5 °F 30 in Calm     51% 0 in WeatherDisplay:10.37 W/m2 CLR
21:11 61.9 °F 43.5 °F 30 in Calm     51% 0 in WeatherDisplay:10.37 W/m2 CLR
21:21 61.9 °F 43.5 °F 30 in Calm     51% 0 in WeatherDisplay:10.37 W/m2 CLR
21:26 61.7 °F 43 °F 30 in Calm     50% 0 in WeatherDisplay:10.37 W/m2 CLR
21:31 61.5 °F 42.6 °F 30 in Calm     50% 0 in WeatherDisplay:10.37 W/m2 CLR
21:36 61.5 °F 42.6 °F 30 in Calm     50% 0 in WeatherDisplay:10.37 W/m2 CLR
21:41 61.5 °F 43.2 °F 30 in Calm     51% 0 in WeatherDisplay:10.37 W/m2 CLR
21:46 61.3 °F 43.5 °F 30 in Calm     52% 0 in WeatherDisplay:10.37 W/m2 CLR
21:51 61.3 °F 43 °F 30 in Calm     51% 0 in WeatherDisplay:10.37 W/m2 CLR
21:56 61.2 °F 43.3 °F 30 in Calm     52% 0 in WeatherDisplay:10.37 W/m2 CLR
22:01 61.2 °F 43.9 °F 30 in Calm     53% 0 in WeatherDisplay:10.37 W/m2 CLR
22:06 61.2 °F 43.3 °F 30 in Calm     52% 0 in WeatherDisplay:10.37 W/m2 CLR
22:11 61.2 °F 43.9 °F 30 in Calm     53% 0 in WeatherDisplay:10.37 W/m2 CLR
22:16 61.2 °F 43.3 °F 30 in Calm     52% 0 in WeatherDisplay:10.37 W/m2 CLR
22:21 61.2 °F 43.9 °F 30 in Calm     53% 0 in WeatherDisplay:10.37 W/m2 CLR
22:26 61.3 °F 42.4 °F 30 in Calm     50% 0 in WeatherDisplay:10.37 W/m2 CLR
22:31 61.3 °F 43.2 °F 30 in Calm     51% 0 in WeatherDisplay:10.37 W/m2 CLR
22:36 61.3 °F 43.5 °F 30 in Calm     52% 0 in WeatherDisplay:10.37 W/m2 CLR
22:42 61.2 °F 43.9 °F 30 in Calm     53% 0 in WeatherDisplay:10.37 W/m2 CLR
22:47 61 °F 44.1 °F 30 in Calm     54% 0 in WeatherDisplay:10.37 W/m2 CLR
22:52 60.8 °F 45 °F 30 in Calm     56% 0 in WeatherDisplay:10.37 W/m2 CLR
22:57 60.6 °F 44.8 °F 30 in Calm     56% 0 in WeatherDisplay:10.37 W/m2 CLR
23:02 60.4 °F 45.1 °F 30 in Calm     57% 0 in WeatherDisplay:10.37 W/m2 CLR
23:07 60.1 °F 45.3 °F 30 in Calm     58% 0 in WeatherDisplay:10.37 W/m2 CLR
23:12 59.9 °F 44.6 °F 30 in Calm     57% 0 in WeatherDisplay:10.37 W/m2 CLR
23:17 59.9 °F 44.6 °F 30 in Calm     57% 0 in WeatherDisplay:10.37 W/m2 CLR
23:22 59.5 °F 45.1 °F 30 in Calm     59% 0 in WeatherDisplay:10.37 W/m2 CLR
23:27 59.4 °F 45.5 °F 30 in Calm     60% 0 in WeatherDisplay:10.37 W/m2 CLR
23:32 59.2 °F 45.1 °F 30 in Calm     60% 0 in WeatherDisplay:10.37 W/m2 CLR
23:37 59 °F 44.8 °F 30 in Calm     59% 0 in WeatherDisplay:10.37 W/m2 CLR
23:42 58.8 °F 44.6 °F 30 in Calm     59% 0 in WeatherDisplay:10.37 W/m2 CLR
23:47 58.8 °F 45 °F 30 in Calm     60% 0 in WeatherDisplay:10.37 W/m2 CLR
23:52 58.8 °F 45 °F 30 in Calm     60% 0 in WeatherDisplay:10.37 W/m2 CLR
23:57 58.8 °F 44.4 °F 30 in Calm     59% 0 in WeatherDisplay:10.37 W/m2 CLR
Indianola, WA, USA
Compliments of Weather Underground - 3 mb